sensor_id;sensor_type;location;lat;lon;timestamp;temperature;humidity
25718;DHT22;13574;52.040;5.692;2022-08-23T00:02:04;23.30;92.00
25718;DHT22;13574;52.040;5.692;2022-08-23T00:04:40;23.30;92.00
25718;DHT22;13574;52.040;5.692;2022-08-23T00:07:09;23.40;92.00
25718;DHT22;13574;52.040;5.692;2022-08-23T00:09:35;23.50;92.00
25718;DHT22;13574;52.040;5.692;2022-08-23T00:12:13;23.50;92.00
25718;DHT22;13574;52.040;5.692;2022-08-23T00:14:43;23.50;92.00
25718;DHT22;13574;52.040;5.692;2022-08-23T00:17:10;23.50;92.00
25718;DHT22;13574;52.040;5.692;2022-08-23T00:19:37;23.50;92.10
25718;DHT22;13574;52.040;5.692;2022-08-23T00:22:04;23.50;92.10
25718;DHT22;13574;52.040;5.692;2022-08-23T00:24:31;23.40;92.20
25718;DHT22;13574;52.040;5.692;2022-08-23T00:27:04;23.30;92.30
25718;DHT22;13574;52.040;5.692;2022-08-23T00:29:40;23.00;92.70
25718;DHT22;13574;52.040;5.692;2022-08-23T00:32:10;23.20;92.60
25718;DHT22;13574;52.040;5.692;2022-08-23T00:34:37;23.20;92.60
25718;DHT22;13574;52.040;5.692;2022-08-23T00:37:03;23.10;92.80
25718;DHT22;13574;52.040;5.692;2022-08-23T00:39:29;23.20;92.90
25718;DHT22;13574;52.040;5.692;2022-08-23T00:41:58;23.20;92.80
25718;DHT22;13574;52.040;5.692;2022-08-23T00:44:31;23.20;92.80
25718;DHT22;13574;52.040;5.692;2022-08-23T00:47:16;23.40;92.80
25718;DHT22;13574;52.040;5.692;2022-08-23T00:50:23;23.30;92.80
25718;DHT22;13574;52.040;5.692;2022-08-23T00:53:06;23.50;92.70
25718;DHT22;13574;52.040;5.692;2022-08-23T00:55:34;23.30;92.90
25718;DHT22;13574;52.040;5.692;2022-08-23T00:58:01;23.40;92.80
25718;DHT22;13574;52.040;5.692;2022-08-23T01:00:28;23.30;92.90
25718;DHT22;13574;52.040;5.692;2022-08-23T01:02:54;23.30;93.00
25718;DHT22;13574;52.040;5.692;2022-08-23T01:05:26;23.30;93.10
25718;DHT22;13574;52.040;5.692;2022-08-23T01:07:53;23.30;93.10
25718;DHT22;13574;52.040;5.692;2022-08-23T01:10:35;23.30;93.20
25718;DHT22;13574;52.040;5.692;2022-08-23T01:13:09;23.30;93.10
25718;DHT22;13574;52.040;5.692;2022-08-23T01:15:53;23.30;93.10
25718;DHT22;13574;52.040;5.692;2022-08-23T01:18:24;23.40;93.00
25718;DHT22;13574;52.040;5.692;2022-08-23T01:20:55;23.30;93.10
25718;DHT22;13574;52.040;5.692;2022-08-23T01:25:54;23.40;93.10
25718;DHT22;13574;52.040;5.692;2022-08-23T01:28:19;23.50;92.90
25718;DHT22;13574;52.040;5.692;2022-08-23T01:30:47;23.40;92.90
25718;DHT22;13574;52.040;5.692;2022-08-23T01:33:13;23.50;93.00
25718;DHT22;13574;52.040;5.692;2022-08-23T01:35:46;23.30;93.10
25718;DHT22;13574;52.040;5.692;2022-08-23T01:38:14;23.30;93.30
25718;DHT22;13574;52.040;5.692;2022-08-23T01:40:41;23.40;93.10
25718;DHT22;13574;52.040;5.692;2022-08-23T01:43:07;23.40;93.00
25718;DHT22;13574;52.040;5.692;2022-08-23T01:45:34;23.30;93.20
25718;DHT22;13574;52.040;5.692;2022-08-23T01:48:00;23.20;93.30
25718;DHT22;13574;52.040;5.692;2022-08-23T01:50:26;23.10;93.40
25718;DHT22;13574;52.040;5.692;2022-08-23T01:52:52;23.10;93.60
25718;DHT22;13574;52.040;5.692;2022-08-23T01:55:18;23.20;93.60
25718;DHT22;13574;52.040;5.692;2022-08-23T01:57:44;23.10;93.40
25718;DHT22;13574;52.040;5.692;2022-08-23T02:00:11;23.20;93.40
25718;DHT22;13574;52.040;5.692;2022-08-23T02:02:37;23.20;93.40
25718;DHT22;13574;52.040;5.692;2022-08-23T02:05:05;23.20;93.40
25718;DHT22;13574;52.040;5.692;2022-08-23T02:07:31;23.30;93.30
25718;DHT22;13574;52.040;5.692;2022-08-23T02:09:56;23.30;93.40
25718;DHT22;13574;52.040;5.692;2022-08-23T02:12:22;23.30;93.30
25718;DHT22;13574;52.040;5.692;2022-08-23T02:14:48;23.40;93.20
25718;DHT22;13574;52.040;5.692;2022-08-23T02:17:13;23.50;93.30
25718;DHT22;13574;52.040;5.692;2022-08-23T02:19:41;23.40;93.40
25718;DHT22;13574;52.040;5.692;2022-08-23T02:22:08;23.40;93.30
25718;DHT22;13574;52.040;5.692;2022-08-23T02:24:37;23.50;93.20
25718;DHT22;13574;52.040;5.692;2022-08-23T02:27:04;23.40;93.40
25718;DHT22;13574;52.040;5.692;2022-08-23T02:29:30;23.30;93.60
25718;DHT22;13574;52.040;5.692;2022-08-23T02:31:57;23.30;93.60
25718;DHT22;13574;52.040;5.692;2022-08-23T02:34:22;23.30;93.60
25718;DHT22;13574;52.040;5.692;2022-08-23T02:36:48;23.30;93.70
25718;DHT22;13574;52.040;5.692;2022-08-23T02:39:16;23.30;93.80
25718;DHT22;13574;52.040;5.692;2022-08-23T02:41:42;23.30;93.80
25718;DHT22;13574;52.040;5.692;2022-08-23T02:44:08;23.20;94.00
25718;DHT22;13574;52.040;5.692;2022-08-23T02:46:35;23.20;94.10
25718;DHT22;13574;52.040;5.692;2022-08-23T02:49:01;23.30;94.00
25718;DHT22;13574;52.040;5.692;2022-08-23T02:51:26;23.30;94.00
25718;DHT22;13574;52.040;5.692;2022-08-23T02:53:52;23.20;93.80
25718;DHT22;13574;52.040;5.692;2022-08-23T02:56:18;23.30;93.70
25718;DHT22;13574;52.040;5.692;2022-08-23T02:58:44;23.20;93.70
25718;DHT22;13574;52.040;5.692;2022-08-23T03:01:20;23.30;93.70
25718;DHT22;13574;52.040;5.692;2022-08-23T03:03:46;23.30;93.80
25718;DHT22;13574;52.040;5.692;2022-08-23T03:06:13;23.40;93.90
25718;DHT22;13574;52.040;5.692;2022-08-23T03:08:39;23.30;93.90
25718;DHT22;13574;52.040;5.692;2022-08-23T03:11:11;23.40;93.70
25718;DHT22;13574;52.040;5.692;2022-08-23T03:13:37;23.50;93.70
25718;DHT22;13574;52.040;5.692;2022-08-23T03:16:04;23.50;93.60
25718;DHT22;13574;52.040;5.692;2022-08-23T03:18:30;23.50;93.70
25718;DHT22;13574;52.040;5.692;2022-08-23T03:20:56;23.40;93.80
25718;DHT22;13574;52.040;5.692;2022-08-23T03:23:21;23.40;93.80
25718;DHT22;13574;52.040;5.692;2022-08-23T03:25:47;23.40;93.80
25718;DHT22;13574;52.040;5.692;2022-08-23T03:28:13;23.50;93.80
25718;DHT22;13574;52.040;5.692;2022-08-23T03:30:39;23.50;93.80
25718;DHT22;13574;52.040;5.692;2022-08-23T03:33:04;23.50;93.80
25718;DHT22;13574;52.040;5.692;2022-08-23T03:35:30;23.50;93.70
25718;DHT22;13574;52.040;5.692;2022-08-23T03:37:56;23.50;93.60
25718;DHT22;13574;52.040;5.692;2022-08-23T03:40:22;23.40;93.60
25718;DHT22;13574;52.040;5.692;2022-08-23T03:42:49;23.40;93.60
25718;DHT22;13574;52.040;5.692;2022-08-23T03:45:16;23.40;93.60
25718;DHT22;13574;52.040;5.692;2022-08-23T03:47:42;23.40;93.70
25718;DHT22;13574;52.040;5.692;2022-08-23T03:50:09;23.40;93.80
25718;DHT22;13574;52.040;5.692;2022-08-23T03:52:35;23.40;93.80
25718;DHT22;13574;52.040;5.692;2022-08-23T03:55:01;23.40;93.70
25718;DHT22;13574;52.040;5.692;2022-08-23T03:57:27;23.30;93.90
25718;DHT22;13574;52.040;5.692;2022-08-23T03:59:52;23.40;93.60
25718;DHT22;13574;52.040;5.692;2022-08-23T04:02:18;23.30;93.70
25718;DHT22;13574;52.040;5.692;2022-08-23T04:04:43;23.30;93.70
25718;DHT22;13574;52.040;5.692;2022-08-23T04:07:09;23.30;93.70
25718;DHT22;13574;52.040;5.692;2022-08-23T04:09:35;23.30;93.70
25718;DHT22;13574;52.040;5.692;2022-08-23T04:12:01;23.30;93.70
25718;DHT22;13574;52.040;5.692;2022-08-23T04:14:27;23.30;93.60
25718;DHT22;13574;52.040;5.692;2022-08-23T04:16:52;23.30;93.80
25718;DHT22;13574;52.040;5.692;2022-08-23T04:19:18;23.40;93.80
25718;DHT22;13574;52.040;5.692;2022-08-23T04:21:48;23.50;93.70
25718;DHT22;13574;52.040;5.692;2022-08-23T04:24:15;23.40;93.90
25718;DHT22;13574;52.040;5.692;2022-08-23T04:26:41;23.50;93.80
25718;DHT22;13574;52.040;5.692;2022-08-23T04:29:07;23.50;93.70
25718;DHT22;13574;52.040;5.692;2022-08-23T04:31:33;23.50;93.90
25718;DHT22;13574;52.040;5.692;2022-08-23T04:34:00;23.50;93.80
25718;DHT22;13574;52.040;5.692;2022-08-23T04:36:28;23.60;93.80
25718;DHT22;13574;52.040;5.692;2022-08-23T04:38:56;23.50;94.40
25718;DHT22;13574;52.040;5.692;2022-08-23T04:41:21;23.60;93.80
25718;DHT22;13574;52.040;5.692;2022-08-23T04:44:06;23.80;93.70
25718;DHT22;13574;52.040;5.692;2022-08-23T04:46:32;23.70;93.80
25718;DHT22;13574;52.040;5.692;2022-08-23T04:48:57;23.80;93.70
25718;DHT22;13574;52.040;5.692;2022-08-23T04:51:24;23.80;93.80
25718;DHT22;13574;52.040;5.692;2022-08-23T04:53:49;23.70;93.90
25718;DHT22;13574;52.040;5.692;2022-08-23T04:56:15;23.70;94.10
25718;DHT22;13574;52.040;5.692;2022-08-23T04:58:41;23.80;93.90
25718;DHT22;13574;52.040;5.692;2022-08-23T05:01:07;23.80;93.90
25718;DHT22;13574;52.040;5.692;2022-08-23T05:03:34;23.70;94.30
25718;DHT22;13574;52.040;5.692;2022-08-23T05:06:00;23.80;93.90
25718;DHT22;13574;52.040;5.692;2022-08-23T05:08:26;24.00;93.70
25718;DHT22;13574;52.040;5.692;2022-08-23T05:10:52;23.90;93.70
25718;DHT22;13574;52.040;5.692;2022-08-23T05:13:18;23.90;93.70
25718;DHT22;13574;52.040;5.692;2022-08-23T05:15:44;24.00;93.80
25718;DHT22;13574;52.040;5.692;2022-08-23T05:18:10;24.10;93.80
25718;DHT22;13574;52.040;5.692;2022-08-23T05:20:36;24.10;93.70
25718;DHT22;13574;52.040;5.692;2022-08-23T05:23:02;24.10;93.80
25718;DHT22;13574;52.040;5.692;2022-08-23T05:25:28;24.10;94.10
25718;DHT22;13574;52.040;5.692;2022-08-23T05:28:14;24.10;93.50
25718;DHT22;13574;52.040;5.692;2022-08-23T05:30:40;24.20;93.60
25718;DHT22;13574;52.040;5.692;2022-08-23T05:33:06;24.30;93.50
25718;DHT22;13574;52.040;5.692;2022-08-23T05:35:32;24.30;93.50
25718;DHT22;13574;52.040;5.692;2022-08-23T05:37:57;24.40;93.60
25718;DHT22;13574;52.040;5.692;2022-08-23T05:40:26;24.40;93.50
25718;DHT22;13574;52.040;5.692;2022-08-23T05:42:53;24.50;93.50
25718;DHT22;13574;52.040;5.692;2022-08-23T05:45:19;24.60;93.40
25718;DHT22;13574;52.040;5.692;2022-08-23T05:47:44;24.60;93.30
25718;DHT22;13574;52.040;5.692;2022-08-23T05:50:11;24.60;93.50
25718;DHT22;13574;52.040;5.692;2022-08-23T05:52:36;24.60;93.20
25718;DHT22;13574;52.040;5.692;2022-08-23T05:55:03;24.70;93.30
25718;DHT22;13574;52.040;5.692;2022-08-23T05:57:29;24.60;93.40
25718;DHT22;13574;52.040;5.692;2022-08-23T05:59:55;24.60;93.10
25718;DHT22;13574;52.040;5.692;2022-08-23T06:02:20;24.60;93.00
25718;DHT22;13574;52.040;5.692;2022-08-23T06:04:46;24.60;92.80
25718;DHT22;13574;52.040;5.692;2022-08-23T06:07:12;24.50;92.70
25718;DHT22;13574;52.040;5.692;2022-08-23T06:09:38;24.30;92.90
25718;DHT22;13574;52.040;5.692;2022-08-23T06:12:04;24.10;93.10
25718;DHT22;13574;52.040;5.692;2022-08-23T06:14:29;24.10;93.30
25718;DHT22;13574;52.040;5.692;2022-08-23T06:16:58;24.10;93.30
25718;DHT22;13574;52.040;5.692;2022-08-23T06:19:24;24.20;93.40
25718;DHT22;13574;52.040;5.692;2022-08-23T06:21:50;24.20;93.50
25718;DHT22;13574;52.040;5.692;2022-08-23T06:24:17;24.20;93.40
25718;DHT22;13574;52.040;5.692;2022-08-23T06:26:43;24.10;93.40
25718;DHT22;13574;52.040;5.692;2022-08-23T06:29:12;24.30;93.30
25718;DHT22;13574;52.040;5.692;2022-08-23T06:31:44;24.50;93.20
25718;DHT22;13574;52.040;5.692;2022-08-23T06:34:50;24.60;93.30
25718;DHT22;13574;52.040;5.692;2022-08-23T06:37:12;24.70;93.00
25718;DHT22;13574;52.040;5.692;2022-08-23T06:39:39;24.80;93.20
25718;DHT22;13574;52.040;5.692;2022-08-23T06:42:15;24.90;93.00
25718;DHT22;13574;52.040;5.692;2022-08-23T06:44:42;25.20;92.70
25718;DHT22;13574;52.040;5.692;2022-08-23T06:47:08;25.30;92.50
25718;DHT22;13574;52.040;5.692;2022-08-23T06:49:34;25.40;92.50
25718;DHT22;13574;52.040;5.692;2022-08-23T06:52:01;25.50;92.50
25718;DHT22;13574;52.040;5.692;2022-08-23T06:54:32;25.70;92.60
25718;DHT22;13574;52.040;5.692;2022-08-23T06:56:59;25.80;92.30
25718;DHT22;13574;52.040;5.692;2022-08-23T06:59:26;26.00;92.30
25718;DHT22;13574;52.040;5.692;2022-08-23T07:01:54;26.20;92.10
25718;DHT22;13574;52.040;5.692;2022-08-23T07:04:26;26.30;92.10
25718;DHT22;13574;52.040;5.692;2022-08-23T07:06:52;26.30;92.10
25718;DHT22;13574;52.040;5.692;2022-08-23T07:09:18;26.40;92.00
25718;DHT22;13574;52.040;5.692;2022-08-23T07:11:44;26.50;91.90
25718;DHT22;13574;52.040;5.692;2022-08-23T07:14:12;26.80;91.90
25718;DHT22;13574;52.040;5.692;2022-08-23T07:16:42;27.10;91.40
25718;DHT22;13574;52.040;5.692;2022-08-23T07:19:09;27.50;91.50
25718;DHT22;13574;52.040;5.692;2022-08-23T07:21:36;28.20;90.80
25718;DHT22;13574;52.040;5.692;2022-08-23T07:24:02;28.80;90.00
25718;DHT22;13574;52.040;5.692;2022-08-23T07:26:29;29.10;89.50
25718;DHT22;13574;52.040;5.692;2022-08-23T07:28:55;29.30;87.80
25718;DHT22;13574;52.040;5.692;2022-08-23T07:31:27;29.70;86.70
25718;DHT22;13574;52.040;5.692;2022-08-23T07:33:56;30.30;85.20
25718;DHT22;13574;52.040;5.692;2022-08-23T07:36:24;30.70;84.00
25718;DHT22;13574;52.040;5.692;2022-08-23T07:38:51;31.10;82.80
25718;DHT22;13574;52.040;5.692;2022-08-23T07:41:17;31.40;81.40
25718;DHT22;13574;52.040;5.692;2022-08-23T07:43:44;31.70;80.50
25718;DHT22;13574;52.040;5.692;2022-08-23T07:46:10;32.00;79.50
25718;DHT22;13574;52.040;5.692;2022-08-23T07:48:36;33.30;78.00
25718;DHT22;13574;52.040;5.692;2022-08-23T07:51:05;34.30;74.60
25718;DHT22;13574;52.040;5.692;2022-08-23T07:53:32;35.60;73.00
25718;DHT22;13574;52.040;5.692;2022-08-23T07:55:58;36.30;70.60
25718;DHT22;13574;52.040;5.692;2022-08-23T07:58:25;36.30;70.20
25718;DHT22;13574;52.040;5.692;2022-08-23T08:00:52;37.30;68.80
25718;DHT22;13574;52.040;5.692;2022-08-23T08:03:18;38.90;66.30
25718;DHT22;13574;52.040;5.692;2022-08-23T08:05:44;40.50;63.30
25718;DHT22;13574;52.040;5.692;2022-08-23T08:08:10;41.90;60.60
25718;DHT22;13574;52.040;5.692;2022-08-23T08:10:40;43.20;58.50
25718;DHT22;13574;52.040;5.692;2022-08-23T08:13:07;44.40;56.70
25718;DHT22;13574;52.040;5.692;2022-08-23T08:15:34;45.50;55.50
25718;DHT22;13574;52.040;5.692;2022-08-23T08:18:00;46.30;54.60
25718;DHT22;13574;52.040;5.692;2022-08-23T08:20:26;47.10;54.00
25718;DHT22;13574;52.040;5.692;2022-08-23T08:22:53;47.20;52.20
25718;DHT22;13574;52.040;5.692;2022-08-23T08:25:19;47.50;52.30
25718;DHT22;13574;52.040;5.692;2022-08-23T08:27:46;48.00;51.50
25718;DHT22;13574;52.040;5.692;2022-08-23T08:30:12;48.50;50.30
25718;DHT22;13574;52.040;5.692;2022-08-23T08:32:38;48.90;50.00
25718;DHT22;13574;52.040;5.692;2022-08-23T08:35:05;49.20;49.90
25718;DHT22;13574;52.040;5.692;2022-08-23T08:37:31;49.30;48.50
25718;DHT22;13574;52.040;5.692;2022-08-23T08:39:58;49.20;49.80
25718;DHT22;13574;52.040;5.692;2022-08-23T08:46:23;49.40;48.60
25718;DHT22;13574;52.040;5.692;2022-08-23T08:48:38;49.30;48.30
25718;DHT22;13574;52.040;5.692;2022-08-23T08:53:57;48.70;48.60
25718;DHT22;13574;52.040;5.692;2022-08-23T08:56:28;49.10;48.70
25718;DHT22;13574;52.040;5.692;2022-08-23T08:58:59;48.90;48.30
25718;DHT22;13574;52.040;5.692;2022-08-23T09:01:25;48.70;48.50
25718;DHT22;13574;52.040;5.692;2022-08-23T09:03:54;48.60;48.50
25718;DHT22;13574;52.040;5.692;2022-08-23T09:06:27;47.80;48.90
25718;DHT22;13574;52.040;5.692;2022-08-23T09:12:35;44.40;51.90
25718;DHT22;13574;52.040;5.692;2022-08-23T09:15:40;42.60;52.80
25718;DHT22;13574;52.040;5.692;2022-08-23T09:18:12;41.30;54.80
25718;DHT22;13574;52.040;5.692;2022-08-23T09:20:39;40.00;55.60
25718;DHT22;13574;52.040;5.692;2022-08-23T09:25:34;38.50;57.30
25718;DHT22;13574;52.040;5.692;2022-08-23T09:28:00;37.90;58.50
25718;DHT22;13574;52.040;5.692;2022-08-23T09:30:55;37.10;59.60
25718;DHT22;13574;52.040;5.692;2022-08-23T09:33:46;36.40;60.80
25718;DHT22;13574;52.040;5.692;2022-08-23T09:36:21;36.10;62.20
25718;DHT22;13574;52.040;5.692;2022-08-23T09:38:55;35.90;62.20
25718;DHT22;13574;52.040;5.692;2022-08-23T09:41:37;35.80;62.80
25718;DHT22;13574;52.040;5.692;2022-08-23T09:44:08;35.40;61.90
25718;DHT22;13574;52.040;5.692;2022-08-23T09:46:37;35.20;62.70
25718;DHT22;13574;52.040;5.692;2022-08-23T09:49:26;35.10;63.40
25718;DHT22;13574;52.040;5.692;2022-08-23T09:51:55;34.70;65.30
25718;DHT22;13574;52.040;5.692;2022-08-23T09:57:05;34.50;64.80
25718;DHT22;13574;52.040;5.692;2022-08-23T09:59:45;34.60;65.70
25718;DHT22;13574;52.040;5.692;2022-08-23T10:02:16;34.40;64.70
25718;DHT22;13574;52.040;5.692;2022-08-23T10:04:46;34.40;65.50
25718;DHT22;13574;52.040;5.692;2022-08-23T10:07:32;34.40;64.90
25718;DHT22;13574;52.040;5.692;2022-08-23T10:10:26;33.70;64.60
25718;DHT22;13574;52.040;5.692;2022-08-23T10:12:54;33.60;63.70
25718;DHT22;13574;52.040;5.692;2022-08-23T10:15:39;33.40;65.20
25718;DHT22;13574;52.040;5.692;2022-08-23T10:21:04;33.70;65.20
25718;DHT22;13574;52.040;5.692;2022-08-23T10:23:42;33.90;65.80
25718;DHT22;13574;52.040;5.692;2022-08-23T10:26:34;34.10;65.40
25718;DHT22;13574;52.040;5.692;2022-08-23T10:29:34;34.10;65.70
25718;DHT22;13574;52.040;5.692;2022-08-23T10:42:32;34.30;64.80
25718;DHT22;13574;52.040;5.692;2022-08-23T10:45:27;34.00;65.10
25718;DHT22;13574;52.040;5.692;2022-08-23T10:48:19;33.90;65.40
25718;DHT22;13574;52.040;5.692;2022-08-23T10:50:57;34.10;66.30
25718;DHT22;13574;52.040;5.692;2022-08-23T10:53:57;34.00;66.30
25718;DHT22;13574;52.040;5.692;2022-08-23T10:56:27;33.70;66.80
25718;DHT22;13574;52.040;5.692;2022-08-23T11:07:36;33.70;66.90
25718;DHT22;13574;52.040;5.692;2022-08-23T11:12:57;33.70;67.40
25718;DHT22;13574;52.040;5.692;2022-08-23T11:15:29;33.90;68.00
25718;DHT22;13574;52.040;5.692;2022-08-23T11:17:59;33.70;67.60
25718;DHT22;13574;52.040;5.692;2022-08-23T11:23:56;33.80;67.50
25718;DHT22;13574;52.040;5.692;2022-08-23T11:26:06;33.60;68.20
25718;DHT22;13574;52.040;5.692;2022-08-23T11:28:45;33.70;67.50
25718;DHT22;13574;52.040;5.692;2022-08-23T11:33:47;34.00;67.40
25718;DHT22;13574;52.040;5.692;2022-08-23T11:36:22;34.00;66.70
25718;DHT22;13574;52.040;5.692;2022-08-23T11:49:26;34.00;67.00
25718;DHT22;13574;52.040;5.692;2022-08-23T12:00:23;33.70;66.50
25718;DHT22;13574;52.040;5.692;2022-08-23T12:03:05;33.80;65.90
25718;DHT22;13574;52.040;5.692;2022-08-23T12:16:10;34.20;67.30
25718;DHT22;13574;52.040;5.692;2022-08-23T12:23:54;34.10;66.30
25718;DHT22;13574;52.040;5.692;2022-08-23T12:29:03;33.50;67.00
25718;DHT22;13574;52.040;5.692;2022-08-23T12:31:38;33.50;67.00
25718;DHT22;13574;52.040;5.692;2022-08-23T12:36:56;33.60;68.30
25718;DHT22;13574;52.040;5.692;2022-08-23T12:39:31;33.70;67.10
25718;DHT22;13574;52.040;5.692;2022-08-23T12:42:15;33.80;66.40
25718;DHT22;13574;52.040;5.692;2022-08-23T12:44:56;34.00;66.20
25718;DHT22;13574;52.040;5.692;2022-08-23T12:47:22;34.10;66.20
25718;DHT22;13574;52.040;5.692;2022-08-23T12:50:06;34.10;66.30
25718;DHT22;13574;52.040;5.692;2022-08-23T12:52:35;33.90;65.70
25718;DHT22;13574;52.040;5.692;2022-08-23T12:55:01;34.00;66.30
25718;DHT22;13574;52.040;5.692;2022-08-23T12:57:34;33.50;66.30
25718;DHT22;13574;52.040;5.692;2022-08-23T13:02:43;33.60;67.80
25718;DHT22;13574;52.040;5.692;2022-08-23T13:05:41;33.70;67.80
25718;DHT22;13574;52.040;5.692;2022-08-23T13:08:15;33.30;68.00
25718;DHT22;13574;52.040;5.692;2022-08-23T13:10:44;33.50;67.90
25718;DHT22;13574;52.040;5.692;2022-08-23T13:13:14;33.60;67.60
25718;DHT22;13574;52.040;5.692;2022-08-23T13:15:56;33.80;67.50
25718;DHT22;13574;52.040;5.692;2022-08-23T13:23:59;33.70;67.60
25718;DHT22;13574;52.040;5.692;2022-08-23T13:26:28;33.70;67.50
25718;DHT22;13574;52.040;5.692;2022-08-23T13:29:30;33.70;67.40
25718;DHT22;13574;52.040;5.692;2022-08-23T13:32:02;33.50;66.70
25718;DHT22;13574;52.040;5.692;2022-08-23T13:34:42;33.30;67.80
25718;DHT22;13574;52.040;5.692;2022-08-23T13:39:50;33.30;67.80
25718;DHT22;13574;52.040;5.692;2022-08-23T13:42:41;33.20;67.10
25718;DHT22;13574;52.040;5.692;2022-08-23T13:45:15;33.20;66.80
25718;DHT22;13574;52.040;5.692;2022-08-23T13:48:00;33.30;67.40
25718;DHT22;13574;52.040;5.692;2022-08-23T13:50:33;33.40;67.20
25718;DHT22;13574;52.040;5.692;2022-08-23T13:52:59;33.40;67.70
25718;DHT22;13574;52.040;5.692;2022-08-23T13:55:26;33.30;68.00
25718;DHT22;13574;52.040;5.692;2022-08-23T13:57:52;33.20;67.20
25718;DHT22;13574;52.040;5.692;2022-08-23T14:00:19;32.80;67.80
25718;DHT22;13574;52.040;5.692;2022-08-23T14:02:45;32.90;68.10
25718;DHT22;13574;52.040;5.692;2022-08-23T14:05:20;33.00;68.50
25718;DHT22;13574;52.040;5.692;2022-08-23T14:07:48;33.20;68.20
25718;DHT22;13574;52.040;5.692;2022-08-23T14:10:21;33.20;67.20
25718;DHT22;13574;52.040;5.692;2022-08-23T14:12:49;33.20;67.10
25718;DHT22;13574;52.040;5.692;2022-08-23T14:15:16;33.00;67.20
25718;DHT22;13574;52.040;5.692;2022-08-23T14:17:48;33.20;68.30
25718;DHT22;13574;52.040;5.692;2022-08-23T14:20:16;33.00;68.50
25718;DHT22;13574;52.040;5.692;2022-08-23T14:22:42;32.90;67.80
25718;DHT22;13574;52.040;5.692;2022-08-23T14:25:09;33.20;67.80
25718;DHT22;13574;52.040;5.692;2022-08-23T14:27:38;33.00;67.20
25718;DHT22;13574;52.040;5.692;2022-08-23T14:30:06;32.80;69.00
25718;DHT22;13574;52.040;5.692;2022-08-23T14:32:32;32.80;68.90
25718;DHT22;13574;52.040;5.692;2022-08-23T14:34:58;32.80;69.20
25718;DHT22;13574;52.040;5.692;2022-08-23T14:37:24;32.90;69.70
25718;DHT22;13574;52.040;5.692;2022-08-23T14:39:49;33.00;69.60
25718;DHT22;13574;52.040;5.692;2022-08-23T14:42:19;33.00;69.20
25718;DHT22;13574;52.040;5.692;2022-08-23T14:44:45;32.90;69.60
25718;DHT22;13574;52.040;5.692;2022-08-23T14:47:10;32.90;69.10
25718;DHT22;13574;52.040;5.692;2022-08-23T14:49:36;32.90;68.80
25718;DHT22;13574;52.040;5.692;2022-08-23T14:52:03;32.90;69.30
25718;DHT22;13574;52.040;5.692;2022-08-23T14:54:29;32.90;69.00
25718;DHT22;13574;52.040;5.692;2022-08-23T14:56:55;32.90;68.90
25718;DHT22;13574;52.040;5.692;2022-08-23T14:59:21;32.80;68.70
25718;DHT22;13574;52.040;5.692;2022-08-23T15:01:48;32.80;69.30
25718;DHT22;13574;52.040;5.692;2022-08-23T15:04:20;32.80;69.40
25718;DHT22;13574;52.040;5.692;2022-08-23T15:06:48;32.70;69.30
25718;DHT22;13574;52.040;5.692;2022-08-23T15:09:14;32.70;69.40
25718;DHT22;13574;52.040;5.692;2022-08-23T15:11:39;32.80;69.50
25718;DHT22;13574;52.040;5.692;2022-08-23T15:14:05;32.80;69.50
25718;DHT22;13574;52.040;5.692;2022-08-23T15:16:31;32.80;69.70
25718;DHT22;13574;52.040;5.692;2022-08-23T15:18:58;32.80;69.60
25718;DHT22;13574;52.040;5.692;2022-08-23T15:21:24;32.80;69.40
25718;DHT22;13574;52.040;5.692;2022-08-23T15:23:51;32.80;69.80
25718;DHT22;13574;52.040;5.692;2022-08-23T15:26:19;32.80;70.20
25718;DHT22;13574;52.040;5.692;2022-08-23T15:28:46;32.60;69.40
25718;DHT22;13574;52.040;5.692;2022-08-23T15:31:13;32.70;69.60
25718;DHT22;13574;52.040;5.692;2022-08-23T15:33:40;32.70;69.40
25718;DHT22;13574;52.040;5.692;2022-08-23T15:36:06;32.60;69.30
25718;DHT22;13574;52.040;5.692;2022-08-23T15:38:34;32.60;69.60
25718;DHT22;13574;52.040;5.692;2022-08-23T15:41:01;32.50;70.40
25718;DHT22;13574;52.040;5.692;2022-08-23T15:43:27;32.40;69.80
25718;DHT22;13574;52.040;5.692;2022-08-23T15:45:53;32.30;70.20
25718;DHT22;13574;52.040;5.692;2022-08-23T15:48:33;32.20;69.70
25718;DHT22;13574;52.040;5.692;2022-08-23T15:50:59;32.30;70.10
25718;DHT22;13574;52.040;5.692;2022-08-23T15:53:25;32.40;70.00
25718;DHT22;13574;52.040;5.692;2022-08-23T15:55:52;32.20;70.20
25718;DHT22;13574;52.040;5.692;2022-08-23T15:58:22;32.20;70.70
25718;DHT22;13574;52.040;5.692;2022-08-23T16:00:48;32.40;70.70
25718;DHT22;13574;52.040;5.692;2022-08-23T16:03:15;32.40;70.30
25718;DHT22;13574;52.040;5.692;2022-08-23T16:05:43;32.30;70.60
25718;DHT22;13574;52.040;5.692;2022-08-23T16:08:18;32.50;70.90
25718;DHT22;13574;52.040;5.692;2022-08-23T16:10:46;32.50;71.00
25718;DHT22;13574;52.040;5.692;2022-08-23T16:13:11;32.70;71.00
25718;DHT22;13574;52.040;5.692;2022-08-23T16:15:38;32.70;70.80
25718;DHT22;13574;52.040;5.692;2022-08-23T16:18:04;32.60;69.90
25718;DHT22;13574;52.040;5.692;2022-08-23T16:20:30;32.70;70.40
25718;DHT22;13574;52.040;5.692;2022-08-23T16:22:56;32.50;70.00
25718;DHT22;13574;52.040;5.692;2022-08-23T16:25:22;32.60;70.50
25718;DHT22;13574;52.040;5.692;2022-08-23T16:27:48;32.60;70.40
25718;DHT22;13574;52.040;5.692;2022-08-23T16:30:14;32.50;71.20
25718;DHT22;13574;52.040;5.692;2022-08-23T16:32:40;32.50;71.50
25718;DHT22;13574;52.040;5.692;2022-08-23T16:35:06;32.60;71.40
25718;DHT22;13574;52.040;5.692;2022-08-23T16:37:32;32.70;71.00
25718;DHT22;13574;52.040;5.692;2022-08-23T16:39:58;32.60;71.30
25718;DHT22;13574;52.040;5.692;2022-08-23T16:42:24;32.50;71.10
25718;DHT22;13574;52.040;5.692;2022-08-23T16:44:49;32.50;71.00
25718;DHT22;13574;52.040;5.692;2022-08-23T16:47:16;32.50;71.50
25718;DHT22;13574;52.040;5.692;2022-08-23T16:49:42;32.20;71.20
25718;DHT22;13574;52.040;5.692;2022-08-23T16:52:08;32.10;71.30
25718;DHT22;13574;52.040;5.692;2022-08-23T16:54:36;32.30;71.90
25718;DHT22;13574;52.040;5.692;2022-08-23T16:57:02;32.30;72.10
25718;DHT22;13574;52.040;5.692;2022-08-23T16:59:28;32.30;72.80
25718;DHT22;13574;52.040;5.692;2022-08-23T17:01:59;32.30;72.90
25718;DHT22;13574;52.040;5.692;2022-08-23T17:04:27;32.00;73.10
25718;DHT22;13574;52.040;5.692;2022-08-23T17:06:53;31.90;72.70
25718;DHT22;13574;52.040;5.692;2022-08-23T17:09:21;32.00;73.00
25718;DHT22;13574;52.040;5.692;2022-08-23T17:11:47;32.10;73.10
25718;DHT22;13574;52.040;5.692;2022-08-23T17:14:13;32.10;73.30
25718;DHT22;13574;52.040;5.692;2022-08-23T17:16:40;32.10;73.10
25718;DHT22;13574;52.040;5.692;2022-08-23T17:19:06;32.00;73.70
25718;DHT22;13574;52.040;5.692;2022-08-23T17:21:32;32.00;74.00
25718;DHT22;13574;52.040;5.692;2022-08-23T17:23:58;32.00;74.40